Time;durP1;ratioP1;P1;durP2;ratioP2;P2;SDS_P1;SDS_P2;PMS_P1;PMS_P2;Temp;Humidity;BMP_temperature;BMP_pressure;BME280_temperature;BME280_humidity;BME280_pressure;Samples;Min_cycle;Max_cycle;Signal;HPM_P1;HPM_P2
2021/07/30 00:00:17;;;;;;;9.23;5.55;;;28.80;49.50;;;;;;4992486;28;20026;-44
2021/07/30 00:02:43;;;;;;;6.75;5.22;;;28.80;49.50;;;;;;4992315;28;20066;-49
2021/07/30 00:05:09;;;;;;;7.55;5.50;;;28.80;49.60;;;;;;4992340;28;20350;-50
2021/07/30 00:07:35;;;;;;;9.50;5.75;;;28.80;49.60;;;;;;4992145;28;20037;-49
2021/07/30 00:10:01;;;;;;;8.45;6.13;;;28.70;49.60;;;;;;4992473;28;20193;-49
2021/07/30 00:12:26;;;;;;;8.25;6.07;;;28.70;49.70;;;;;;4991866;28;20038;-48
2021/07/30 00:14:52;;;;;;;7.38;5.50;;;28.70;50.50;;;;;;4974420;28;20101;-49
2021/07/30 00:17:18;;;;;;;6.32;5.65;;;28.70;49.90;;;;;;4991747;28;20030;-48
2021/07/30 00:19:44;;;;;;;7.25;5.43;;;28.70;50.00;;;;;;4992083;28;20473;-48
2021/07/30 00:22:10;;;;;;;14.18;6.30;;;28.60;49.90;;;;;;4991036;28;20041;-50
2021/07/30 00:24:35;;;;;;;23.70;17.00;;;28.70;50.10;;;;;;4990604;28;20493;-55
2021/07/30 00:27:01;;;;;;;30.48;25.80;;;28.60;50.10;;;;;;4990916;28;20291;-49
2021/07/30 00:29:27;;;;;;;15.38;11.65;;;28.60;50.20;;;;;;4991428;28;20023;-57
2021/07/30 00:31:52;;;;;;;19.55;11.20;;;28.70;50.30;;;;;;4991517;28;20042;-53
2021/07/30 00:34:18;;;;;;;18.13;14.63;;;28.70;50.20;;;;;;4974030;28;20037;-52
2021/07/30 00:36:44;;;;;;;20.80;16.70;;;28.70;50.20;;;;;;4991271;28;20022;-61
2021/07/30 00:39:09;;;;;;;12.80;9.95;;;28.60;50.20;;;;;;4973554;28;20022;-62
2021/07/30 00:41:39;;;;;;;9.43;8.43;;;28.70;50.30;;;;;;4990824;28;20041;-63
2021/07/30 00:44:06;;;;;;;10.40;7.75;;;28.60;50.30;;;;;;4991497;28;20026;-63
2021/07/30 00:46:31;;;;;;;8.20;6.47;;;28.60;50.40;;;;;;4973055;28;20097;-62
2021/07/30 00:48:58;;;;;;;8.57;5.55;;;28.60;50.30;;;;;;4991427;28;20034;-63
2021/07/30 00:51:24;;;;;;;8.18;6.10;;;28.60;50.40;;;;;;4990443;28;20393;-63
2021/07/30 00:53:51;;;;;;;7.72;5.65;;;28.60;50.40;;;;;;4991732;28;20037;-63
2021/07/30 00:59:02;;;;;;;12.13;10.82;;;28.50;50.40;;;;;;4990858;28;20037;-62
2021/07/30 01:01:28;;;;;;;13.52;8.60;;;28.50;50.40;;;;;;4989673;28;20030;-48
2021/07/30 01:03:53;;;;;;;8.75;6.63;;;28.50;50.50;;;;;;4975353;28;20129;-52
2021/07/30 01:06:19;;;;;;;9.38;6.68;;;28.40;50.50;;;;;;4993409;28;20050;-55
2021/07/30 01:08:45;;;;;;;7.10;6.40;;;28.40;50.60;;;;;;4994046;28;20026;-46
2021/07/30 01:11:10;;;;;;;9.63;6.90;;;28.40;50.50;;;;;;4995040;28;20038;-48
2021/07/30 01:13:36;;;;;;;14.48;9.40;;;28.40;50.50;;;;;;4993803;28;20030;-46
2021/07/30 01:16:02;;;;;;;11.13;7.50;;;28.40;50.50;;;;;;4993603;28;20030;-45
2021/07/30 01:18:27;;;;;;;11.75;8.77;;;28.40;50.50;;;;;;4992606;28;20038;-47
2021/07/30 01:21:07;;;;;;;11.73;7.63;;;28.40;50.50;;;;;;4991844;28;20034;-49
2021/07/30 01:23:33;;;;;;;8.93;6.15;;;28.30;50.60;;;;;;4993646;28;20034;-46
2021/07/30 01:25:59;;;;;;;9.27;5.85;;;28.30;50.50;;;;;;4975039;28;20096;-44
2021/07/30 01:28:31;;;;;;;11.35;6.22;;;28.20;50.60;;;;;;4992628;28;20473;-46
2021/07/30 01:30:58;;;;;;;8.40;5.53;;;28.20;50.80;;;;;;4993799;28;20034;-48
2021/07/30 01:33:24;;;;;;;10.13;5.65;;;28.20;50.80;;;;;;4975270;28;20034;-45
2021/07/30 01:35:49;;;;;;;8.23;5.55;;;28.10;50.70;;;;;;4994605;28;20027;-49
2021/07/30 01:38:16;;;;;;;6.75;5.40;;;28.10;50.70;;;;;;4994257;28;20027;-47
2021/07/30 01:40:41;;;;;;;6.13;5.45;;;28.20;50.80;;;;;;4992379;28;20022;-51
2021/07/30 01:43:07;;;;;;;8.27;5.50;;;28.10;50.70;;;;;;4975685;28;20033;-52
2021/07/30 01:45:33;;;;;;;5.53;4.97;;;28.10;50.60;;;;;;4994150;28;20057;-49
2021/07/30 01:47:58;;;;;;;6.55;5.10;;;28.10;50.70;;;;;;4994711;28;20026;-50
2021/07/30 01:50:24;;;;;;;6.68;5.13;;;28.00;50.80;;;;;;4994451;28;20037;-48
2021/07/30 01:52:49;;;;;;;6.88;5.28;;;28.00;50.90;;;;;;4992754;28;20033;-50
2021/07/30 01:55:15;;;;;;;6.80;4.75;;;28.00;51.00;;;;;;4977142;28;20401;-51
2021/07/30 01:57:41;;;;;;;10.10;5.65;;;28.00;51.00;;;;;;4976344;28;20158;-48
2021/07/30 02:00:07;;;;;;;8.30;5.53;;;28.00;51.00;;;;;;4993203;28;20038;-48
2021/07/30 02:02:33;;;;;;;7.10;5.40;;;27.90;51.00;;;;;;4991873;28;20129;-49
2021/07/30 02:05:02;;;;;;;8.10;4.93;;;27.90;51.00;;;;;;4993893;28;20082;-51
2021/07/30 02:07:28;;;;;;;7.90;5.22;;;27.90;51.00;;;;;;4992718;28;20150;-46
2021/07/30 02:09:54;;;;;;;7.40;5.85;;;27.90;51.60;;;;;;4975518;28;20125;-49
2021/07/30 02:12:20;;;;;;;9.55;5.00;;;27.90;51.10;;;;;;4991971;28;20026;-45
2021/07/30 02:14:45;;;;;;;10.10;5.13;;;27.80;51.20;;;;;;4974868;28;20022;-49
2021/07/30 02:17:11;;;;;;;8.18;5.40;;;27.80;51.20;;;;;;4994309;28;20393;-47
2021/07/30 02:19:37;;;;;;;9.05;5.20;;;27.80;51.20;;;;;;4993140;28;20026;-49
2021/07/30 02:22:03;;;;;;;6.82;5.15;;;27.80;51.20;;;;;;4993547;28;20654;-49
2021/07/30 02:24:28;;;;;;;8.88;5.10;;;27.80;51.20;;;;;;4992966;28;20034;-49
2021/07/30 02:26:54;;;;;;;7.65;4.90;;;27.70;51.20;;;;;;4994115;28;20032;-45
2021/07/30 02:29:20;;;;;;;8.38;5.13;;;27.70;51.30;;;;;;4976485;28;20421;-45
2021/07/30 02:31:48;;;;;;;6.50;5.18;;;27.70;51.30;;;;;;4993001;28;20053;-48
2021/07/30 02:34:14;;;;;;;7.53;5.60;;;27.70;51.30;;;;;;4993527;28;20109;-46
2021/07/30 02:36:39;;;;;;;8.13;5.40;;;27.70;51.30;;;;;;4993552;28;20065;-45
2021/07/30 02:39:05;;;;;;;6.78;5.20;;;27.70;51.30;;;;;;4993615;28;20026;-50
2021/07/30 02:41:31;;;;;;;9.30;5.30;;;27.70;51.40;;;;;;4975541;28;20389;-48
2021/07/30 02:43:59;;;;;;;7.38;6.15;;;27.70;51.40;;;;;;4976153;28;20037;-50
2021/07/30 02:46:25;;;;;;;7.82;5.97;;;27.60;51.50;;;;;;4976058;28;20029;-49
2021/07/30 02:48:50;;;;;;;6.45;5.30;;;27.60;51.50;;;;;;4975712;28;20405;-47
2021/07/30 02:51:16;;;;;;;6.63;5.70;;;27.60;51.50;;;;;;4993446;28;20461;-47
2021/07/30 02:53:42;;;;;;;7.57;5.75;;;27.60;51.50;;;;;;4992968;28;20027;-50
2021/07/30 02:56:08;;;;;;;7.70;6.78;;;27.60;51.60;;;;;;4993316;28;20487;-47
2021/07/30 02:58:36;;;;;;;11.10;5.95;;;27.60;51.50;;;;;;4992582;28;20292;-50
2021/07/30 03:01:02;;;;;;;9.73;6.30;;;27.70;51.40;;;;;;4975970;28;20027;-49
2021/07/30 03:03:28;;;;;;;11.52;5.78;;;27.70;51.30;;;;;;4992189;28;20031;-48
2021/07/30 03:05:54;;;;;;;9.48;6.10;;;27.60;51.30;;;;;;4974855;28;20096;-46
2021/07/30 03:08:21;;;;;;;6.63;5.70;;;27.60;51.40;;;;;;4975307;28;20026;-48
2021/07/30 03:10:47;;;;;;;8.40;6.03;;;27.60;51.40;;;;;;4992422;28;20057;-49
2021/07/30 03:13:13;;;;;;;8.57;5.25;;;27.50;51.40;;;;;;4992412;28;20069;-46
2021/07/30 03:15:38;;;;;;;10.85;5.13;;;27.50;51.30;;;;;;4992345;28;20030;-47
2021/07/30 03:18:04;;;;;;;13.10;5.55;;;27.50;51.50;;;;;;4992049;28;20033;-50
2021/07/30 03:20:30;;;;;;;6.40;5.38;;;27.50;51.50;;;;;;4991804;28;20034;-49
2021/07/30 03:22:55;;;;;;;8.55;5.95;;;27.40;51.60;;;;;;4975216;28;20041;-49
2021/07/30 03:25:21;;;;;;;7.00;5.50;;;27.40;51.70;;;;;;4975092;28;20030;-46
2021/07/30 03:27:47;;;;;;;7.28;5.53;;;27.40;51.60;;;;;;4991113;28;20085;-51
2021/07/30 03:30:14;;;;;;;7.60;5.38;;;27.40;52.20;;;;;;4991901;28;20034;-46
2021/07/30 03:32:40;;;;;;;8.63;5.13;;;27.40;51.60;;;;;;4991140;28;20034;-51
2021/07/30 03:35:06;;;;;;;9.77;4.93;;;27.30;51.70;;;;;;4974222;28;20027;-49
2021/07/30 03:37:32;;;;;;;8.13;4.93;;;27.30;51.80;;;;;;4973446;28;20072;-49
2021/07/30 03:39:57;;;;;;;7.70;5.45;;;27.30;51.80;;;;;;4991523;28;20041;-52
2021/07/30 03:42:23;;;;;;;6.75;5.63;;;27.20;51.80;;;;;;4991714;28;20034;-45
2021/07/30 03:44:48;;;;;;;7.15;5.20;;;27.20;52.00;;;;;;4991455;28;20033;-48
2021/07/30 03:47:14;;;;;;;9.20;5.40;;;27.20;52.10;;;;;;4975044;28;20030;-48
2021/07/30 03:49:40;;;;;;;8.38;5.35;;;27.10;52.00;;;;;;4991998;28;20377;-48
2021/07/30 03:52:06;;;;;;;9.85;5.53;;;27.10;52.10;;;;;;4992772;28;20423;-50
2021/07/30 03:54:31;;;;;;;8.23;5.72;;;27.10;52.30;;;;;;4992002;28;20030;-47
2021/07/30 03:56:57;;;;;;;7.85;5.10;;;27.00;52.30;;;;;;4992386;28;20030;-48
2021/07/30 03:59:22;;;;;;;8.90;5.47;;;27.00;52.30;;;;;;4992747;28;20038;-50
2021/07/30 04:01:48;;;;;;;11.63;5.85;;;27.00;52.40;;;;;;4991210;28;20473;-51
2021/07/30 04:04:17;;;;;;;10.50;5.63;;;27.00;52.50;;;;;;4992390;28;20030;-52
2021/07/30 04:06:44;;;;;;;8.07;5.22;;;26.90;52.60;;;;;;4991815;28;20055;-45
2021/07/30 04:09:14;;;;;;;6.90;4.97;;;27.00;52.70;;;;;;4974959;28;20084;-47
2021/07/30 04:11:40;;;;;;;12.43;6.05;;;26.90;52.70;;;;;;4991659;28;20034;-47
2021/07/30 04:14:07;;;;;;;12.73;5.70;;;27.00;52.80;;;;;;4992100;28;20535;-50
2021/07/30 04:16:34;;;;;;;7.60;5.72;;;27.00;52.80;;;;;;4991269;28;20053;-44
2021/07/30 04:19:01;;;;;;;9.65;5.65;;;27.00;52.80;;;;;;4992238;28;20027;-48
2021/07/30 04:21:27;;;;;;;8.70;5.63;;;27.00;52.80;;;;;;4992316;28;20039;-51
2021/07/30 04:23:53;;;;;;;6.95;5.50;;;27.00;52.80;;;;;;4991545;28;20049;-46
2021/07/30 04:26:18;;;;;;;7.95;5.43;;;27.10;52.70;;;;;;4991968;28;20027;-49
2021/07/30 04:28:44;;;;;;;10.25;5.97;;;27.10;52.70;;;;;;4991598;28;20027;-49
2021/07/30 04:31:10;;;;;;;10.95;6.03;;;27.10;52.60;;;;;;4992223;28;20470;-49
2021/07/30 04:33:35;;;;;;;8.10;5.78;;;27.10;52.60;;;;;;4991070;28;20081;-49
2021/07/30 04:36:01;;;;;;;10.82;6.03;;;27.20;52.50;;;;;;4992121;28;20492;-49
2021/07/30 04:38:27;;;;;;;10.85;5.70;;;27.10;52.40;;;;;;4993201;28;20030;-48
2021/07/30 04:40:52;;;;;;;7.82;5.70;;;27.20;52.60;;;;;;4977221;28;20102;-50
2021/07/30 04:43:18;;;;;;;11.57;6.30;;;27.20;52.50;;;;;;4995159;28;20037;-50
2021/07/30 04:45:44;;;;;;;14.00;6.05;;;27.20;52.40;;;;;;4995265;28;20053;-47
2021/07/30 04:48:09;;;;;;;11.68;5.95;;;27.30;52.30;;;;;;4995640;28;20470;-46
2021/07/30 04:50:35;;;;;;;10.07;6.13;;;27.30;52.10;;;;;;4995168;28;20038;-47
2021/07/30 04:53:01;;;;;;;9.52;5.72;;;27.40;52.10;;;;;;4978049;28;20026;-49
2021/07/30 04:55:27;;;;;;;10.25;6.35;;;27.40;52.10;;;;;;4995690;28;20123;-49
2021/07/30 04:57:55;;;;;;;10.70;5.82;;;27.40;52.00;;;;;;4995036;28;20058;-47
2021/07/30 05:00:22;;;;;;;9.32;6.03;;;27.40;51.90;;;;;;4978197;28;20018;-50
2021/07/30 05:02:51;;;;;;;9.38;6.05;;;27.40;51.90;;;;;;4977514;28;20188;-50
2021/07/30 05:05:16;;;;;;;12.90;6.18;;;27.40;51.90;;;;;;4995464;28;20125;-52
2021/07/30 05:07:43;;;;;;;8.95;5.90;;;27.40;51.80;;;;;;4994712;28;20525;-47
2021/07/30 05:10:09;;;;;;;13.70;6.32;;;27.40;51.90;;;;;;4977978;28;20081;-48
2021/07/30 05:12:34;;;;;;;9.48;6.25;;;27.40;51.90;;;;;;4995217;28;20031;-49
2021/07/30 05:15:00;;;;;;;9.55;6.10;;;27.40;51.80;;;;;;4994750;28;20488;-47
2021/07/30 05:17:26;;;;;;;13.02;5.85;;;27.40;51.90;;;;;;4995033;28;20397;-49
2021/07/30 05:19:52;;;;;;;12.25;5.70;;;27.40;51.90;;;;;;4977185;28;20165;-46
2021/07/30 05:22:17;;;;;;;13.43;5.93;;;27.40;51.80;;;;;;4994869;28;20030;-49
2021/07/30 05:24:43;;;;;;;9.25;5.70;;;27.40;51.90;;;;;;4976683;28;20034;-48
2021/07/30 05:27:09;;;;;;;10.50;5.63;;;27.40;51.70;;;;;;4994787;28;20514;-51
2021/07/30 05:29:34;;;;;;;7.15;5.75;;;27.40;51.70;;;;;;4994998;28;20019;-49
2021/07/30 05:32:00;;;;;;;9.63;5.38;;;27.40;51.80;;;;;;4994636;28;20027;-48
2021/07/30 05:34:26;;;;;;;9.27;6.00;;;27.40;51.80;;;;;;4983800;28;20359;-49
2021/07/30 05:36:51;;;;;;;13.30;5.70;;;27.40;51.80;;;;;;4996360;28;20527;-53
2021/07/30 05:39:17;;;;;;;13.93;6.47;;;27.40;52.00;;;;;;4995813;28;20477;-47
2021/07/30 05:41:43;;;;;;;10.70;6.05;;;27.50;51.90;;;;;;4976042;28;20058;-51
2021/07/30 05:44:08;;;;;;;10.00;6.38;;;27.50;51.80;;;;;;4994742;28;20030;-48
2021/07/30 05:46:38;;;;;;;15.13;7.15;;;27.50;51.70;;;;;;4994564;28;20068;-46
2021/07/30 05:49:04;;;;;;;15.68;8.02;;;27.50;51.80;;;;;;4976651;28;20054;-49
2021/07/30 05:51:30;;;;;;;14.50;7.15;;;27.50;51.60;;;;;;4993521;28;20420;-47
2021/07/30 05:53:55;;;;;;;13.50;6.85;;;27.50;51.60;;;;;;4976135;28;20037;-45
2021/07/30 05:56:21;;;;;;;15.77;6.13;;;27.50;51.60;;;;;;4994020;28;20114;-45
2021/07/30 05:58:47;;;;;;;13.32;7.05;;;27.50;51.50;;;;;;4976412;28;20054;-51
2021/07/30 06:01:13;;;;;;;15.18;8.15;;;27.60;51.70;;;;;;4993796;28;20076;-45
2021/07/30 06:03:42;;;;;;;14.80;7.50;;;27.60;51.60;;;;;;4993308;28;20030;-45
2021/07/30 06:06:08;;;;;;;14.70;9.10;;;27.60;51.50;;;;;;4976550;28;20050;-47
2021/07/30 06:08:33;;;;;;;17.42;13.32;;;27.70;51.50;;;;;;4994570;28;20378;-47
2021/07/30 06:10:59;;;;;;;17.27;8.55;;;27.70;51.30;;;;;;4993181;28;20100;-48
2021/07/30 06:13:26;;;;;;;21.38;9.48;;;27.90;51.20;;;;;;4976448;28;20054;-48
2021/07/30 06:15:52;;;;;;;16.77;10.75;;;27.90;51.10;;;;;;4993372;28;20092;-48
2021/07/30 06:18:17;;;;;;;17.38;8.05;;;27.90;51.00;;;;;;4976206;28;20033;-47
2021/07/30 06:20:43;;;;;;;17.45;10.23;;;28.00;50.90;;;;;;4991878;28;20477;-48
2021/07/30 06:23:09;;;;;;;15.55;9.52;;;28.00;50.90;;;;;;4992229;28;20089;-45
2021/07/30 06:25:34;;;;;;;17.67;10.32;;;28.10;50.70;;;;;;4993028;28;20027;-45
2021/07/30 06:28:01;;;;;;;18.50;9.93;;;28.10;50.60;;;;;;4993261;28;20023;-46
2021/07/30 06:30:27;;;;;;;16.25;9.88;;;28.10;50.60;;;;;;4993875;28;20022;-45
2021/07/30 06:32:53;;;;;;;20.33;12.85;;;28.20;50.50;;;;;;4993023;28;20057;-46
2021/07/30 06:35:20;;;;;;;12.80;8.27;;;28.30;50.60;;;;;;4993705;28;20034;-45
2021/07/30 06:37:46;;;;;;;9.48;7.22;;;28.30;50.30;;;;;;4992578;28;20131;-45
2021/07/30 06:40:13;;;;;;;16.77;9.93;;;28.40;50.30;;;;;;4975403;28;20031;-46
2021/07/30 06:42:40;;;;;;;17.20;9.50;;;28.40;50.30;;;;;;4975677;28;20141;-46
2021/07/30 06:45:06;;;;;;;19.25;8.48;;;28.40;50.40;;;;;;4993063;28;20029;-45
2021/07/30 06:47:36;;;;;;;15.73;7.50;;;28.40;50.30;;;;;;4975606;28;20034;-47
2021/07/30 06:50:03;;;;;;;17.52;7.53;;;28.50;50.40;;;;;;4992569;28;20029;-45
2021/07/30 06:52:31;;;;;;;15.63;7.53;;;28.50;50.50;;;;;;4993195;28;20076;-47
2021/07/30 06:54:57;;;;;;;14.63;7.63;;;28.60;50.70;;;;;;4992583;28;20042;-46
2021/07/30 06:57:23;;;;;;;14.40;8.05;;;28.60;50.80;;;;;;4993080;28;20210;-46
2021/07/30 06:59:49;;;;;;;14.55;7.15;;;28.80;50.50;;;;;;4992580;28;20053;-48
2021/07/30 07:02:15;;;;;;;10.25;6.97;;;29.00;50.20;;;;;;4975492;28;20402;-47
2021/07/30 07:04:41;;;;;;;9.27;6.68;;;29.20;50.10;;;;;;4992868;28;20502;-46
2021/07/30 07:07:06;;;;;;;14.07;6.53;;;29.30;49.50;;;;;;4992483;28;20026;-50
2021/07/30 07:09:32;;;;;;;11.32;6.90;;;29.40;49.10;;;;;;4992542;28;20105;-47
2021/07/30 07:11:58;;;;;;;12.90;6.88;;;29.60;48.80;;;;;;4992197;28;20081;-48
2021/07/30 07:14:23;;;;;;;13.13;6.53;;;29.80;48.50;;;;;;4992434;28;20106;-47
2021/07/30 07:16:49;;;;;;;12.20;6.20;;;29.90;48.10;;;;;;4973690;28;20033;-46
2021/07/30 07:19:15;;;;;;;16.42;6.50;;;30.00;47.80;;;;;;4992516;28;20092;-47
2021/07/30 07:21:41;;;;;;;12.48;6.03;;;30.10;47.30;;;;;;4992081;28;20062;-52
2021/07/30 07:24:07;;;;;;;18.15;6.93;;;30.20;46.90;;;;;;4991201;28;20092;-52
2021/07/30 07:26:37;;;;;;;15.48;5.88;;;30.40;46.90;;;;;;4992229;28;20112;-48
2021/07/30 07:29:04;;;;;;;8.88;5.65;;;30.40;46.50;;;;;;4991563;28;20023;-50
2021/07/30 07:31:30;;;;;;;12.73;6.05;;;30.50;46.20;;;;;;4992389;28;20058;-52
2021/07/30 07:33:55;;;;;;;20.42;6.05;;;30.40;46.00;;;;;;4973702;28;20065;-49
2021/07/30 07:36:21;;;;;;;14.02;6.13;;;30.50;46.20;;;;;;4992067;28;20030;-48
2021/07/30 07:38:47;;;;;;;16.67;6.68;;;30.50;46.00;;;;;;4992108;28;20026;-50
2021/07/30 07:41:13;;;;;;;15.07;6.00;;;30.50;46.00;;;;;;4974747;28;20481;-46
2021/07/30 07:43:39;;;;;;;8.57;5.30;;;30.50;46.00;;;;;;4992283;28;20499;-50
2021/07/30 07:46:05;;;;;;;13.35;5.90;;;30.50;45.80;;;;;;4991523;28;20027;-51
2021/07/30 07:48:31;;;;;;;14.57;6.07;;;30.60;45.90;;;;;;4992090;28;20025;-47
2021/07/30 07:50:57;;;;;;;15.80;6.25;;;30.60;45.90;;;;;;4991499;28;20030;-52
2021/07/30 07:53:22;;;;;;;14.88;6.00;;;30.50;45.80;;;;;;4974269;28;20030;-51
2021/07/30 07:55:51;;;;;;;11.05;6.22;;;30.50;45.80;;;;;;4972793;28;20030;-47
2021/07/30 07:58:17;;;;;;;19.00;6.25;;;30.50;45.90;;;;;;4991767;28;20500;-48
2021/07/30 08:00:42;;;;;;;16.65;6.28;;;30.50;46.00;;;;;;4991551;28;20034;-50
2021/07/30 08:03:27;;;;;;;16.73;6.22;;;30.50;46.10;;;;;;4991412;28;20481;-46
2021/07/30 08:05:53;;;;;;;10.75;6.13;;;30.50;46.40;;;;;;4990835;28;20046;-47
2021/07/30 08:08:18;;;;;;;8.18;6.05;;;30.50;46.30;;;;;;4991861;28;20022;-49
2021/07/30 08:10:44;;;;;;;9.75;5.55;;;30.50;46.20;;;;;;4974436;28;20034;-47
2021/07/30 08:13:10;;;;;;;8.88;5.43;;;30.50;46.30;;;;;;4990387;28;20026;-51
2021/07/30 08:15:40;;;;;;;10.25;5.85;;;30.50;46.10;;;;;;4991933;28;20027;-48
2021/07/30 08:18:05;;;;;;;8.52;5.38;;;30.30;46.20;;;;;;4973535;28;20033;-52
2021/07/30 08:20:31;;;;;;;18.15;7.53;;;30.30;46.40;;;;;;4973827;28;20030;-48
2021/07/30 08:22:57;;;;;;;17.30;6.40;;;30.40;46.70;;;;;;4990844;28;20041;-49
2021/07/30 08:25:22;;;;;;;14.70;6.53;;;30.30;46.70;;;;;;4990878;28;20153;-47
2021/07/30 08:27:48;;;;;;;16.13;7.68;;;30.30;46.60;;;;;;4991308;28;20033;-50
2021/07/30 08:30:14;;;;;;;17.60;6.30;;;30.30;46.60;;;;;;4972659;28;20499;-49
2021/07/30 08:32:39;;;;;;;10.43;5.88;;;30.30;46.50;;;;;;4973588;28;20034;-49
2021/07/30 08:35:06;;;;;;;12.85;6.30;;;30.40;46.60;;;;;;4973267;28;20089;-49
2021/07/30 08:37:31;;;;;;;12.27;6.35;;;30.30;46.50;;;;;;4991013;28;20329;-52
2021/07/30 08:39:57;;;;;;;12.48;6.28;;;30.30;46.50;;;;;;4990802;28;20026;-50
2021/07/30 08:42:23;;;;;;;11.75;5.85;;;30.40;46.60;;;;;;4990501;28;20026;-46
2021/07/30 08:44:48;;;;;;;9.27;5.53;;;30.40;46.80;;;;;;4991054;28;20030;-50
2021/07/30 08:47:18;;;;;;;13.98;5.82;;;30.40;46.50;;;;;;4990440;28;20109;-52
2021/07/30 08:49:45;;;;;;;6.72;4.90;;;30.30;46.20;;;;;;4991622;28;20109;-52
2021/07/30 08:52:12;;;;;;;9.23;5.47;;;30.30;46.40;;;;;;4973141;28;20457;-46
2021/07/30 08:54:41;;;;;;;9.45;5.97;;;30.30;46.40;;;;;;4991150;28;20050;-52
2021/07/30 08:57:09;;;;;;;8.02;5.55;;;30.30;46.50;;;;;;4972956;28;20027;-51
2021/07/30 08:59:38;;;;;;;13.13;6.18;;;30.30;46.40;;;;;;4990778;28;20030;-51
2021/07/30 09:02:04;;;;;;;9.27;5.93;;;30.30;46.30;;;;;;4972695;28;20031;-47
2021/07/30 09:04:30;;;;;;;9.32;5.65;;;30.30;46.30;;;;;;4973131;28;20109;-51
2021/07/30 09:06:57;;;;;;;7.88;5.85;;;30.30;46.30;;;;;;4972890;28;20055;-51
2021/07/30 09:09:24;;;;;;;11.07;5.30;;;30.30;46.30;;;;;;4973414;28;20081;-49
2021/07/30 09:12:01;;;;;;;7.10;5.28;;;30.30;46.50;;;;;;4990807;28;20026;-47
2021/07/30 09:14:38;;;;;;;7.70;5.70;;;30.40;46.60;;;;;;4990521;28;20390;-49
2021/07/30 09:17:06;;;;;;;6.90;6.05;;;30.40;46.60;;;;;;4989430;28;20101;-48
2021/07/30 09:19:33;;;;;;;7.32;5.75;;;30.40;46.40;;;;;;4990593;28;20027;-46
2021/07/30 09:22:10;;;;;;;8.60;6.88;;;30.40;46.30;;;;;;4972392;28;20505;-47
2021/07/30 09:24:40;;;;;;;12.27;6.43;;;30.40;46.20;;;;;;4990970;28;20034;-49
2021/07/30 09:27:08;;;;;;;8.63;6.47;;;30.40;46.20;;;;;;4994261;28;20027;-52
2021/07/30 09:29:34;;;;;;;8.50;6.15;;;30.40;46.20;;;;;;4976775;28;20041;-47
2021/07/30 09:32:13;;;;;;;10.77;5.95;;;30.40;45.80;;;;;;4993928;28;20033;-45
2021/07/30 09:34:44;;;;;;;6.28;5.25;;;30.40;45.90;;;;;;4977671;28;20037;-47
2021/07/30 09:37:17;;;;;;;25.02;6.28;;;30.40;45.50;;;;;;4993952;28;20112;-47
2021/07/30 09:39:46;;;;;;;14.57;5.45;;;30.40;45.00;;;;;;4993850;28;20125;-48
2021/07/30 09:42:12;;;;;;;9.50;5.72;;;30.40;44.90;;;;;;4993949;28;20037;-45
2021/07/30 09:44:44;;;;;;;15.45;5.85;;;30.40;45.10;;;;;;4994533;28;20041;-47
2021/07/30 09:47:22;;;;;;;10.00;5.65;;;30.30;45.20;;;;;;4976440;28;20357;-48
2021/07/30 09:50:05;;;;;;;10.30;5.68;;;30.40;45.10;;;;;;4994803;28;20109;-49
2021/07/30 09:52:36;;;;;;;11.23;5.30;;;30.40;45.00;;;;;;4994180;28;20461;-44
2021/07/30 09:55:09;;;;;;;10.48;6.15;;;30.40;45.00;;;;;;4993845;28;20041;-50
2021/07/30 09:57:37;;;;;;;8.32;5.70;;;30.40;45.10;;;;;;4994529;28;20081;-48
2021/07/30 10:00:17;;;;;;;6.70;5.60;;;30.40;44.80;;;;;;4976312;28;20443;-48
2021/07/30 10:02:46;;;;;;;8.25;5.57;;;30.40;44.70;;;;;;4975861;28;20477;-49
2021/07/30 10:05:14;;;;;;;7.25;4.97;;;30.40;45.00;;;;;;4973510;28;20050;-50
2021/07/30 10:07:42;;;;;;;7.90;5.32;;;30.40;45.00;;;;;;4992393;28;20054;-48
2021/07/30 10:10:33;;;;;;;8.77;5.53;;;30.50;44.90;;;;;;4992613;28;20045;-48
2021/07/30 10:13:01;;;;;;;12.27;5.95;;;30.50;44.90;;;;;;4992373;28;20122;-50
2021/07/30 10:15:27;;;;;;;7.07;5.10;;;30.50;44.90;;;;;;4992227;28;20026;-49
2021/07/30 10:17:57;;;;;;;8.52;4.90;;;30.50;44.70;;;;;;4992646;28;20114;-48
2021/07/30 10:20:25;;;;;;;9.18;5.32;;;30.50;44.60;;;;;;4992861;28;20026;-49
2021/07/30 10:22:54;;;;;;;7.68;5.15;;;30.50;44.40;;;;;;4992910;28;20105;-48
2021/07/30 10:25:40;;;;;;;8.75;5.63;;;30.50;44.50;;;;;;4975462;28;20030;-44
2021/07/30 10:28:11;;;;;;;7.28;4.80;;;30.50;43.70;;;;;;4992633;28;20037;-49
2021/07/30 10:30:54;;;;;;;8.23;5.53;;;30.50;43.80;;;;;;4992204;28;20022;-47
2021/07/30 10:33:34;;;;;;;7.35;5.45;;;30.50;44.10;;;;;;4992104;28;20026;-49
2021/07/30 10:36:01;;;;;;;9.07;7.00;;;30.50;44.10;;;;;;4991296;28;20038;-47
2021/07/30 10:38:27;;;;;;;8.23;6.30;;;30.60;44.10;;;;;;4992355;28;20030;-48
2021/07/30 10:40:56;;;;;;;8.02;5.78;;;30.60;43.90;;;;;;4990124;28;20049;-49
2021/07/30 10:43:23;;;;;;;10.85;5.93;;;30.60;43.80;;;;;;4992535;28;20560;-49
2021/07/30 10:46:13;;;;;;;9.63;5.70;;;30.60;43.80;;;;;;4992909;28;20026;-48
2021/07/30 10:48:39;;;;;;;14.07;7.10;;;30.60;44.00;;;;;;4992627;28;20022;-51
2021/07/30 10:51:31;;;;;;;12.75;6.15;;;30.60;43.90;;;;;;4974144;28;20039;-51
2021/07/30 10:54:05;;;;;;;11.98;5.25;;;30.60;44.10;;;;;;4972297;28;20050;-46
2021/07/30 10:56:31;;;;;;;10.95;5.50;;;30.60;44.00;;;;;;4975077;28;20026;-49
2021/07/30 10:59:00;;;;;;;12.98;8.88;;;30.70;43.80;;;;;;4992743;28;20030;-49
2021/07/30 11:01:29;;;;;;;12.77;8.90;;;30.70;43.90;;;;;;4974815;28;20500;-50
2021/07/30 11:03:56;;;;;;;8.43;5.78;;;30.70;43.90;;;;;;4992262;28;20054;-49
2021/07/30 11:06:26;;;;;;;9.07;6.85;;;30.70;43.50;;;;;;4991745;28;20170;-47
2021/07/30 11:11:44;;;;;;;9.80;6.45;;;30.80;43.30;;;;;;4992165;28;20034;-51
2021/07/30 11:14:18;;;;;;;9.07;5.43;;;30.80;43.40;;;;;;4992152;28;20176;-48
2021/07/30 11:16:55;;;;;;;7.25;5.85;;;30.80;43.40;;;;;;4992519;28;20076;-49
2021/07/30 11:19:24;;;;;;;7.80;5.70;;;30.80;43.50;;;;;;4991636;28;20022;-48
2021/07/30 11:21:50;;;;;;;7.63;5.47;;;30.80;43.40;;;;;;4991960;28;20030;-48
2021/07/30 11:24:17;;;;;;;7.80;5.60;;;30.80;43.40;;;;;;4992103;28;20084;-49
2021/07/30 11:26:43;;;;;;;8.25;5.50;;;30.90;43.50;;;;;;4992141;28;20426;-48
2021/07/30 11:29:11;;;;;;;8.45;5.57;;;30.90;43.40;;;;;;4991389;28;20054;-49
2021/07/30 11:31:53;;;;;;;8.63;5.30;;;30.90;43.40;;;;;;4992036;28;20034;-53
2021/07/30 11:34:22;;;;;;;16.08;5.88;;;30.80;43.50;;;;;;4989988;28;20026;-48
2021/07/30 11:36:52;;;;;;;9.77;5.78;;;30.90;43.50;;;;;;4990736;28;20172;-49
2021/07/30 11:39:18;;;;;;;10.00;5.80;;;30.90;43.60;;;;;;4973019;28;20410;-49
2021/07/30 11:41:48;;;;;;;10.68;5.90;;;30.90;43.60;;;;;;4990728;28;20066;-49
2021/07/30 11:44:14;;;;;;;9.73;5.90;;;30.90;43.60;;;;;;4990198;28;20069;-49
2021/07/30 11:46:40;;;;;;;11.75;5.60;;;31.00;43.60;;;;;;4991223;28;20031;-47
2021/07/30 11:49:07;;;;;;;7.05;5.72;;;31.00;43.70;;;;;;4989831;28;20030;-48
2021/07/30 11:51:39;;;;;;;8.25;5.45;;;31.00;43.70;;;;;;4990897;28;20026;-50
2021/07/30 11:54:05;;;;;;;8.98;6.22;;;31.00;43.60;;;;;;4990833;28;20029;-50
2021/07/30 11:56:43;;;;;;;9.95;5.78;;;31.00;43.60;;;;;;4991826;28;20030;-50
2021/07/30 11:59:08;;;;;;;9.45;6.15;;;31.00;43.80;;;;;;4990856;28;20068;-49
2021/07/30 12:01:34;;;;;;;15.02;6.00;;;31.00;43.60;;;;;;4991917;28;20062;-48
2021/07/30 12:04:14;;;;;;;7.22;5.15;;;31.10;43.40;;;;;;4974121;28;20026;-51
2021/07/30 12:06:47;;;;;;;11.82;5.80;;;31.00;43.50;;;;;;4991197;28;20469;-51
2021/07/30 12:09:15;;;;;;;12.20;5.55;;;31.00;43.60;;;;;;4990891;28;20152;-47
2021/07/30 12:11:55;;;;;;;7.70;5.47;;;31.00;43.50;;;;;;4991637;28;20200;-49
2021/07/30 12:14:25;;;;;;;8.95;5.15;;;31.00;43.50;;;;;;4990796;28;20026;-54
2021/07/30 12:16:51;;;;;;;9.60;5.28;;;31.10;43.60;;;;;;4990915;28;20030;-48
2021/07/30 12:19:34;;;;;;;7.35;4.80;;;31.20;43.50;;;;;;4990472;28;20080;-48
2021/07/30 12:22:05;;;;;;;6.68;5.13;;;31.10;43.50;;;;;;4991098;28;20101;-48
2021/07/30 12:24:32;;;;;;;7.53;5.80;;;31.20;43.50;;;;;;4990820;28;20022;-50
2021/07/30 12:27:16;;;;;;;7.70;4.80;;;31.20;43.40;;;;;;4990737;28;20113;-46
2021/07/30 12:29:43;;;;;;;;;;;31.20;43.60;;;;;;4991447;28;20105;-51
2021/07/30 12:32:11;;;;;;;8.60;5.03;;;31.30;43.60;;;;;;4971967;28;19913;-52
2021/07/30 12:34:36;;;;;;;8.25;5.60;;;31.30;43.30;;;;;;4990532;28;20033;-50
2021/07/30 12:37:11;;;;;;;10.90;5.25;;;31.30;43.50;;;;;;4990331;28;20034;-54
2021/07/30 12:39:48;;;;;;;6.03;4.82;;;31.20;43.50;;;;;;4990798;28;20030;-49
2021/07/30 12:42:25;;;;;;;9.93;5.72;;;31.20;43.50;;;;;;4990487;28;20042;-46
2021/07/30 12:45:03;;;;;;;7.03;5.53;;;31.20;43.50;;;;;;4991149;28;20023;-50
2021/07/30 12:47:29;;;;;;;6.13;4.95;;;31.20;43.60;;;;;;4972963;28;20023;-55
2021/07/30 12:49:55;;;;;;;9.70;5.32;;;31.30;43.70;;;;;;4972770;28;20026;-51